Time;durP1;ratioP1;P1;durP2;ratioP2;P2;SDS_P1;SDS_P2;PMS_P1;PMS_P2;Temp;Humidity;BMP_temperature;BMP_pressure;BME280_temperature;BME280_humidity;BME280_pressure;Samples;Min_cycle;Max_cycle;Signal;HPM_P1;HPM_P2
2021/03/20 00:00:08;;;;;;;1999.90;999.90;;;;;;;;;;5077446;28;20454;-33
2021/03/20 00:02:54;;;;;;;1999.90;999.90;;;;;;;;;;5076774;28;20744;-35
2021/03/20 00:05:40;;;;;;;1999.90;999.90;;;;;;;;;;5077044;28;20449;-31
2021/03/20 00:08:27;;;;;;;1999.90;999.90;;;;;;;;;;5076629;28;20500;-35
2021/03/20 00:11:13;;;;;;;1999.90;999.90;;;;;;;;;;5077004;28;20540;-36
2021/03/20 00:13:59;;;;;;;1999.90;999.90;;;;;;;;;;5077013;28;20481;-33
2021/03/20 00:16:45;;;;;;;1999.90;999.90;;;;;;;;;;5076624;28;20450;-32
2021/03/20 00:19:31;;;;;;;1999.90;999.90;;;;;;;;;;5076517;28;20596;-33
2021/03/20 00:22:18;;;;;;;1999.90;999.90;;;;;;;;;;5076817;28;20608;-32
2021/03/20 00:25:08;;;;;;;1999.90;999.90;;;;;;;;;;5076788;28;20450;-34
2021/03/20 00:27:56;;;;;;;1999.90;999.90;;;;;;;;;;5076601;28;20874;-32
2021/03/20 00:30:45;;;;;;;1999.90;999.90;;;;;;;;;;5076458;28;20891;-32
2021/03/20 00:33:30;;;;;;;1999.90;999.90;;;;;;;;;;5076357;28;20580;-36
2021/03/20 00:36:17;;;;;;;1999.90;999.90;;;;;;;;;;5076550;28;20434;-33
2021/03/20 00:39:21;;;;;;;1999.90;999.90;;;;;;;;;;5076744;28;20446;-32
2021/03/20 00:42:08;;;;;;;1999.90;999.90;;;;;;;;;;5076389;28;20495;-33
2021/03/20 00:44:54;;;;;;;1999.90;999.90;;;;;;;;;;5076204;28;20446;-35
2021/03/20 00:47:40;;;;;;;1999.90;999.90;;;;;;;;;;5076596;28;20530;-32
2021/03/20 00:50:32;;;;;;;1999.90;999.90;;;;;;;;;;5076648;28;20442;-38
2021/03/20 00:53:19;;;;;;;1999.90;999.90;;;;;;;;;;5076142;28;20848;-36
2021/03/20 00:56:05;;;;;;;1999.90;999.90;;;;;;;;;;5076374;28;20513;-33
2021/03/20 00:58:56;;;;;;;1999.90;999.90;;;;;;;;;;5076442;28;20711;-31
2021/03/20 01:01:43;;;;;;;1999.90;999.90;;;;;;;;;;5076176;28;20477;-32
2021/03/20 01:04:29;;;;;;;1999.90;999.90;;;;;;;;;;5077016;28;20543;-33
2021/03/20 01:07:15;;;;;;;1999.90;999.90;;;;;;;;;;5080396;28;20450;-31
2021/03/20 01:10:01;;;;;;;1999.90;999.90;;;;;;;;;;5079929;28;20441;-33
2021/03/20 01:12:48;;;;;;;1999.90;999.90;;;;;;;;;;5080284;28;20445;-33
2021/03/20 01:15:38;;;;;;;1999.90;999.90;;;;;;;;;;5079922;28;20504;-31
2021/03/20 01:18:26;;;;;;;1999.90;999.90;;;;;;;;;;5079738;28;20445;-35
2021/03/20 01:21:13;;;;;;;1999.90;999.90;;;;;;;;;;5079777;28;20450;-34
2021/03/20 01:23:59;;;;;;;1999.90;999.90;;;;;;;;;;5079980;28;20449;-35
2021/03/20 01:26:46;;;;;;;1999.90;999.90;;;;;;;;;;5080106;28;20434;-38
2021/03/20 01:29:32;;;;;;;1999.90;999.90;;;;;;;;;;5079877;28;20495;-37
2021/03/20 01:32:19;;;;;;;1999.90;999.90;;;;;;;;;;5079883;28;20716;-32
2021/03/20 01:35:06;;;;;;;1999.90;999.90;;;;;;;;;;5079608;28;20442;-33
2021/03/20 01:37:52;;;;;;;1999.90;999.90;;;;;;;;;;5079783;28;20438;-33
2021/03/20 01:40:40;;;;;;;1999.90;999.90;;;;;;;;;;5079369;28;20438;-34
2021/03/20 01:43:27;;;;;;;1999.90;999.90;;;;;;;;;;5079269;28;20567;-33
2021/03/20 01:46:31;;;;;;;1999.90;999.90;;;;;;;;;;5079630;28;20480;-32
2021/03/20 01:49:21;;;;;;;1999.90;999.90;;;;;;;;;;5079511;28;20540;-33
2021/03/20 01:52:16;;;;;;;1999.90;999.90;;;;;;;;;;5079359;28;20535;-33
2021/03/20 01:55:06;;;;;;;1999.90;999.90;;;;;;;;;;5079553;28;20859;-34
2021/03/20 01:57:55;;;;;;;1999.90;999.90;;;;;;;;;;5079196;28;20450;-35
2021/03/20 02:00:42;;;;;;;1999.90;999.90;;;;;;;;;;5079436;28;20441;-34
2021/03/20 02:03:29;;;;;;;1999.90;999.90;;;;;;;;;;5079275;28;20477;-36
2021/03/20 02:06:18;;;;;;;1999.90;999.90;;;;;;;;;;5078694;28;20465;-40
2021/03/20 02:09:05;;;;;;;1999.90;999.90;;;;;;;;;;5079100;28;20497;-34
2021/03/20 02:11:56;;;;;;;1999.90;999.90;;;;;;;;;;5078926;28;20435;-37
2021/03/20 02:14:47;;;;;;;1999.90;999.90;;;;;;;;;;5078594;28;20989;-32
2021/03/20 02:17:37;;;;;;;1999.90;999.90;;;;;;;;;;5078755;28;20442;-33
2021/03/20 02:20:30;;;;;;;1999.90;999.90;;;;;;;;;;5078777;28;20735;-35
2021/03/20 02:23:42;;;;;;;1999.90;999.90;;;;;;;;;;5078296;28;20608;-32
2021/03/20 02:26:38;;;;;;;1999.90;999.90;;;;;;;;;;5078679;28;20438;-35
2021/03/20 02:29:47;;;;;;;1999.90;999.90;;;;;;;;;;5078777;28;20787;-34
2021/03/20 02:32:47;;;;;;;1999.90;999.90;;;;;;;;;;5078407;28;20437;-35
2021/03/20 02:35:38;;;;;;;1999.90;999.90;;;;;;;;;;5078408;28;20500;-34
2021/03/20 02:38:28;;;;;;;1999.90;999.90;;;;;;;;;;5078706;28;20788;-38
2021/03/20 02:41:20;;;;;;;1999.90;999.90;;;;;;;;;;5077712;28;20532;-36
2021/03/20 02:44:08;;;;;;;1999.90;999.90;;;;;;;;;;5078623;28;20512;-36
2021/03/20 02:46:57;;;;;;;1999.90;999.90;;;;;;;;;;5077858;28;20874;-33
2021/03/20 02:49:46;;;;;;;1999.90;999.90;;;;;;;;;;5077973;28;20450;-35
2021/03/20 02:52:36;;;;;;;1999.90;999.90;;;;;;;;;;5077794;28;20489;-33
2021/03/20 02:55:24;;;;;;;1999.90;999.90;;;;;;;;;;5077767;28;20871;-32
2021/03/20 02:58:13;;;;;;;1999.90;999.90;;;;;;;;;;5077986;28;20860;-33
2021/03/20 03:01:01;;;;;;;1999.90;999.90;;;;;;;;;;5078235;28;20438;-37
2021/03/20 03:03:48;;;;;;;1999.90;999.90;;;;;;;;;;5077300;28;20484;-32
2021/03/20 03:06:37;;;;;;;1999.90;999.90;;;;;;;;;;5077752;28;20446;-33
2021/03/20 03:09:26;;;;;;;1999.90;999.90;;;;;;;;;;5077873;28;20754;-34
2021/03/20 03:12:15;;;;;;;1999.90;999.90;;;;;;;;;;5077511;28;20723;-32
2021/03/20 03:15:06;;;;;;;1999.90;999.90;;;;;;;;;;5077838;28;20890;-33
2021/03/20 03:17:58;;;;;;;1999.90;999.90;;;;;;;;;;5077545;28;20559;-32
2021/03/20 03:20:51;;;;;;;1999.90;999.90;;;;;;;;;;5077363;28;20533;-34
2021/03/20 03:23:39;;;;;;;1999.90;999.90;;;;;;;;;;5077414;28;20541;-35
2021/03/20 03:26:27;;;;;;;1999.90;999.90;;;;;;;;;;5077820;28;20461;-36
2021/03/20 03:29:18;;;;;;;1999.90;999.90;;;;;;;;;;5077167;28;20458;-33
2021/03/20 03:32:09;;;;;;;1999.90;999.90;;;;;;;;;;5077233;28;20430;-35
2021/03/20 03:34:57;;;;;;;1999.90;999.90;;;;;;;;;;5077388;28;20447;-33
2021/03/20 03:37:47;;;;;;;1999.90;999.90;;;;;;;;;;5077485;28;20937;-44
2021/03/20 03:40:38;;;;;;;1999.90;999.90;;;;;;;;;;5076815;28;20445;-32
2021/03/20 03:43:24;;;;;;;1999.90;999.90;;;;;;;;;;5077425;28;20551;-32
2021/03/20 03:46:11;;;;;;;1999.90;999.90;;;;;;;;;;5077224;28;20438;-33
2021/03/20 03:48:58;;;;;;;1999.90;999.90;;;;;;;;;;5077257;28;20497;-34
2021/03/20 03:51:45;;;;;;;1999.90;999.90;;;;;;;;;;5077376;28;20851;-34
2021/03/20 03:54:31;;;;;;;1999.90;999.90;;;;;;;;;;5077199;28;20500;-32
2021/03/20 03:57:28;;;;;;;1999.90;999.90;;;;;;;;;;5077028;28;20588;-37
2021/03/20 04:00:20;;;;;;;1999.90;999.90;;;;;;;;;;5077072;28;20733;-32
2021/03/20 04:03:23;;;;;;;1999.90;999.90;;;;;;;;;;5078013;28;20482;-35
2021/03/20 04:06:14;;;;;;;1999.90;999.90;;;;;;;;;;5076936;28;20540;-35
2021/03/20 04:09:06;;;;;;;1999.90;999.90;;;;;;;;;;5076898;28;20859;-34
2021/03/20 04:12:07;;;;;;;1999.90;999.90;;;;;;;;;;5076435;28;20518;-36
2021/03/20 04:14:57;;;;;;;1999.90;999.90;;;;;;;;;;5077249;28;20540;-35
2021/03/20 04:17:47;;;;;;;1999.90;999.90;;;;;;;;;;5076608;28;20453;-33
2021/03/20 04:20:37;;;;;;;1999.90;999.90;;;;;;;;;;5076353;28;20856;-33
2021/03/20 04:23:26;;;;;;;1999.90;999.90;;;;;;;;;;5076493;28;20927;-36
2021/03/20 04:26:17;;;;;;;1999.90;999.90;;;;;;;;;;5076906;28;20750;-36
2021/03/20 04:29:05;;;;;;;1999.90;999.90;;;;;;;;;;5077184;28;21244;-34
2021/03/20 04:31:54;;;;;;;1999.90;999.90;;;;;;;;;;5076683;28;20442;-36
2021/03/20 04:34:43;;;;;;;1999.90;999.90;;;;;;;;;;5076910;28;20712;-32
2021/03/20 04:37:31;;;;;;;1999.90;999.90;;;;;;;;;;5076778;28;20509;-36
2021/03/20 04:40:36;;;;;;;1999.90;999.90;;;;;;;;;;5078729;28;20536;-36
2021/03/20 04:43:23;;;;;;;1999.90;999.90;;;;;;;;;;5080211;28;20485;-34
2021/03/20 04:46:13;;;;;;;1999.90;999.90;;;;;;;;;;5080863;28;20454;-34
2021/03/20 04:49:07;;;;;;;1999.90;999.90;;;;;;;;;;5080594;28;20457;-37
2021/03/20 04:52:01;;;;;;;1999.90;999.90;;;;;;;;;;5080029;28;20458;-33
2021/03/20 04:54:53;;;;;;;1999.90;999.90;;;;;;;;;;5080533;28;20450;-35
2021/03/20 04:57:41;;;;;;;1999.90;999.90;;;;;;;;;;5080407;28;20825;-36
2021/03/20 05:00:30;;;;;;;1999.90;999.90;;;;;;;;;;5080210;28;20729;-32
2021/03/20 05:03:19;;;;;;;1999.90;999.90;;;;;;;;;;5080172;28;20651;-34
2021/03/20 05:06:08;;;;;;;1999.90;999.90;;;;;;;;;;5080264;28;20475;-35
2021/03/20 05:08:55;;;;;;;1999.90;999.90;;;;;;;;;;5080235;28;20473;-38
2021/03/20 05:11:44;;;;;;;1999.90;999.90;;;;;;;;;;5079924;28;20581;-34
2021/03/20 05:14:35;;;;;;;1999.90;999.90;;;;;;;;;;5078943;28;20523;-33
2021/03/20 05:17:22;;;;;;;1999.90;999.90;;;;;;;;;;5078969;28;20449;-36
2021/03/20 05:20:09;;;;;;;1999.90;999.90;;;;;;;;;;5079991;28;20204;-32
2021/03/20 05:22:56;;;;;;;1999.90;999.90;;;;;;;;;;5079931;28;20481;-42
2021/03/20 05:25:42;;;;;;;1999.90;999.90;;;;;;;;;;5080136;28;20445;-34
2021/03/20 05:28:31;;;;;;;1999.90;999.90;;;;;;;;;;5080081;28;20736;-33
2021/03/20 05:31:17;;;;;;;1999.90;999.90;;;;;;;;;;5079477;28;20592;-34
2021/03/20 05:34:05;;;;;;;1999.90;999.90;;;;;;;;;;5079708;28;20884;-32
2021/03/20 05:36:52;;;;;;;1999.90;999.90;;;;;;;;;;5079913;28;20919;-33
2021/03/20 05:39:39;;;;;;;1999.90;999.90;;;;;;;;;;5079774;28;20446;-33
2021/03/20 05:42:28;;;;;;;1999.90;999.90;;;;;;;;;;5079819;28;20478;-34
2021/03/20 05:45:18;;;;;;;1999.90;999.90;;;;;;;;;;5079395;28;20592;-33
2021/03/20 05:48:13;;;;;;;1999.90;999.90;;;;;;;;;;5079780;28;20437;-31
2021/03/20 05:51:06;;;;;;;1999.90;999.90;;;;;;;;;;5079184;28;20453;-32
2021/03/20 05:54:03;;;;;;;1999.90;999.90;;;;;;;;;;5079588;28;20457;-34
2021/03/20 05:56:56;;;;;;;1999.90;999.90;;;;;;;;;;5079716;28;20446;-32
2021/03/20 05:59:51;;;;;;;1999.90;999.90;;;;;;;;;;5079497;28;20721;-35
2021/03/20 06:02:42;;;;;;;1999.90;999.90;;;;;;;;;;5079190;28;20910;-33
2021/03/20 06:05:36;;;;;;;1999.90;999.90;;;;;;;;;;5078779;28;20446;-34
2021/03/20 06:08:30;;;;;;;1999.90;999.90;;;;;;;;;;5078748;28;20747;-34
2021/03/20 06:11:25;;;;;;;1999.90;999.90;;;;;;;;;;5079121;28;20492;-34
2021/03/20 06:14:27;;;;;;;1999.90;999.90;;;;;;;;;;5078389;28;20490;-33
2021/03/20 06:17:14;;;;;;;1999.90;999.90;;;;;;;;;;5079267;28;20437;-37
2021/03/20 06:20:13;;;;;;;1999.90;999.90;;;;;;;;;;5078889;28;20516;-34
2021/03/20 06:23:16;;;;;;;1999.90;999.90;;;;;;;;;;5079180;28;20482;-33
2021/03/20 06:26:06;;;;;;;1999.90;999.90;;;;;;;;;;5078904;28;20457;-36
2021/03/20 06:28:55;;;;;;;1999.90;999.90;;;;;;;;;;5078794;28;20540;-34
2021/03/20 06:31:45;;;;;;;1999.90;999.90;;;;;;;;;;5078400;28;20441;-36
2021/03/20 06:34:33;;;;;;;1999.90;999.90;;;;;;;;;;5078841;28;20454;-38
2021/03/20 06:37:22;;;;;;;1999.90;999.90;;;;;;;;;;5078210;28;20557;-32
2021/03/20 06:40:16;;;;;;;1999.90;999.90;;;;;;;;;;5078389;28;20781;-33
2021/03/20 06:43:04;;;;;;;1999.90;999.90;;;;;;;;;;5077830;28;20541;-39
2021/03/20 06:45:50;;;;;;;1999.90;999.90;;;;;;;;;;5078086;28;20762;-36
2021/03/20 06:48:38;;;;;;;1999.90;999.90;;;;;;;;;;5077719;28;20446;-35
2021/03/20 06:51:25;;;;;;;1999.90;999.90;;;;;;;;;;5078479;28;20871;-34
2021/03/20 06:54:12;;;;;;;1999.90;999.90;;;;;;;;;;5061769;28;20438;-32
2021/03/20 06:57:01;;;;;;;1999.90;999.90;;;;;;;;;;5058338;28;20566;-36
2021/03/20 06:59:47;;;;;;;1999.90;999.90;;;;;;;;;;5060868;28;20516;-33
2021/03/20 07:02:40;;;;;;;1999.90;999.90;;;;;;;;;;5057365;28;20625;-37
2021/03/20 07:05:30;;;;;;;1999.90;999.90;;;;;;;;;;5058432;28;21007;-34
2021/03/20 07:08:27;;;;;;;1999.90;999.90;;;;;;;;;;5058279;28;20459;-36
2021/03/20 07:11:19;;;;;;;1999.90;999.90;;;;;;;;;;5058019;28;20737;-34
2021/03/20 07:14:36;;;;;;;1999.90;999.90;;;;;;;;;;5058301;28;20483;-32
2021/03/20 07:17:37;;;;;;;1999.90;999.90;;;;;;;;;;5057893;28;20593;-33
2021/03/20 07:20:24;;;;;;;1999.90;999.90;;;;;;;;;;5057287;28;20267;-32
2021/03/20 07:23:12;;;;;;;1999.90;999.90;;;;;;;;;;5057542;28;20479;-35
2021/03/20 07:26:06;;;;;;;1999.90;999.90;;;;;;;;;;5057651;28;20443;-33
2021/03/20 07:28:57;;;;;;;1999.90;999.90;;;;;;;;;;5057259;28;20733;-33
2021/03/20 07:31:53;;;;;;;1999.90;999.90;;;;;;;;;;5057226;28;20605;-33
2021/03/20 07:34:39;;;;;;;1999.90;999.90;;;;;;;;;;5057305;28;20447;-34
2021/03/20 07:37:29;;;;;;;1999.90;999.90;;;;;;;;;;5056854;28;20633;-34
2021/03/20 07:40:19;;;;;;;1999.90;999.90;;;;;;;;;;5056918;28;20438;-34
2021/03/20 07:43:13;;;;;;;1999.90;999.90;;;;;;;;;;5056635;28;20544;-35
2021/03/20 07:46:07;;;;;;;1999.90;999.90;;;;;;;;;;5056943;28;20571;-34
2021/03/20 07:49:01;;;;;;;1999.90;999.90;;;;;;;;;;5056997;28;20286;-34
2021/03/20 07:51:52;;;;;;;1999.90;999.90;;;;;;;;;;5057092;28;20205;-32
2021/03/20 07:54:39;;;;;;;1999.90;999.90;;;;;;;;;;5057192;28;20208;-36
2021/03/20 07:57:26;;;;;;;1999.90;999.90;;;;;;;;;;5056905;28;20196;-41
2021/03/20 08:00:20;;;;;;;1999.90;999.90;;;;;;;;;;5057012;28;20212;-33
2021/03/20 08:03:10;;;;;;;1999.90;999.90;;;;;;;;;;5056302;28;20326;-36
2021/03/20 08:06:10;;;;;;;1999.90;999.90;;;;;;;;;;5057216;28;20242;-33
2021/03/20 08:09:09;;;;;;;1999.90;999.90;;;;;;;;;;5057682;28;20665;-33
2021/03/20 08:12:10;;;;;;;1999.90;999.90;;;;;;;;;;5056763;28;20509;-32
2021/03/20 08:15:15;;;;;;;1999.90;999.90;;;;;;;;;;5056125;28;20244;-37
2021/03/20 08:18:12;;;;;;;1999.90;999.90;;;;;;;;;;5056027;28;20287;-34
2021/03/20 08:21:13;;;;;;;1999.90;999.90;;;;;;;;;;5056672;28;20199;-35
2021/03/20 08:24:05;;;;;;;1999.90;999.90;;;;;;;;;;5056070;28;20599;-33
2021/03/20 08:26:55;;;;;;;1999.90;999.90;;;;;;;;;;5055900;28;20606;-37
2021/03/20 08:29:57;;;;;;;1999.90;999.90;;;;;;;;;;5073924;28;20219;-34
2021/03/20 08:33:05;;;;;;;1999.90;999.90;;;;;;;;;;5076520;28;20485;-32
2021/03/20 08:35:58;;;;;;;1999.90;999.90;;;;;;;;;;5076396;28;20193;-35
2021/03/20 08:38:53;;;;;;;1999.90;999.90;;;;;;;;;;5076403;28;20199;-38
2021/03/20 08:41:52;;;;;;;1999.90;999.90;;;;;;;;;;5076329;28;20199;-32
2021/03/20 08:44:54;;;;;;;1999.90;999.90;;;;;;;;;;5076439;28;20479;-32
2021/03/20 08:47:53;;;;;;;1999.90;999.90;;;;;;;;;;5076147;28;20254;-34
2021/03/20 08:50:43;;;;;;;1999.90;999.90;;;;;;;;;;5076043;28;20195;-34
2021/03/20 08:53:40;;;;;;;1999.90;999.90;;;;;;;;;;5076189;28;20523;-37
2021/03/20 08:56:44;;;;;;;1999.90;999.90;;;;;;;;;;5075952;28;20299;-37
2021/03/20 08:59:32;;;;;;;1999.90;999.90;;;;;;;;;;5074675;28;20210;-37
2021/03/20 09:02:30;;;;;;;1999.90;999.90;;;;;;;;;;5074801;28;20290;-33
2021/03/20 09:05:25;;;;;;;1999.90;999.90;;;;;;;;;;5076286;28;20701;-35
2021/03/20 09:08:16;;;;;;;1999.90;999.90;;;;;;;;;;5064056;28;20197;-35
2021/03/20 09:11:06;;;;;;;1999.90;999.90;;;;;;;;;;5055155;28;20201;-35
2021/03/20 09:13:56;;;;;;;1999.90;999.90;;;;;;;;;;5053194;28;20237;-33
2021/03/20 09:16:45;;;;;;;1999.90;999.90;;;;;;;;;;5055002;28;20224;-34
2021/03/20 09:19:34;;;;;;;1999.90;999.90;;;;;;;;;;5054900;28;20484;-33
2021/03/20 09:22:21;;;;;;;1999.90;999.90;;;;;;;;;;5061317;28;20626;-34
2021/03/20 09:25:19;;;;;;;1999.90;999.90;;;;;;;;;;5055097;28;20195;-36
2021/03/20 09:28:12;;;;;;;1999.90;999.90;;;;;;;;;;5059105;28;20201;-32
2021/03/20 09:30:59;;;;;;;1999.90;999.90;;;;;;;;;;5059544;28;20205;-34
2021/03/20 09:33:47;;;;;;;1999.90;999.90;;;;;;;;;;5059916;28;20345;-37
2021/03/20 09:36:41;;;;;;;1999.90;999.90;;;;;;;;;;5059744;28;20203;-32
2021/03/20 09:39:40;;;;;;;1999.90;999.90;;;;;;;;;;5059115;28;20201;-36
2021/03/20 09:42:36;;;;;;;1999.90;999.90;;;;;;;;;;5059385;28;20200;-32
2021/03/20 09:45:30;;;;;;;1999.90;999.90;;;;;;;;;;5057554;28;20216;-36
2021/03/20 09:48:33;;;;;;;1999.90;999.90;;;;;;;;;;5057446;28;20202;-33
2021/03/20 09:51:37;;;;;;;1999.90;999.90;;;;;;;;;;5069191;28;20713;-32
2021/03/20 09:54:43;;;;;;;1999.90;999.90;;;;;;;;;;5079317;28;20306;-32
2021/03/20 09:57:56;;;;;;;1999.90;999.90;;;;;;;;;;5078650;28;20274;-34
2021/03/20 10:00:48;;;;;;;1999.90;999.90;;;;;;;;;;5043418;28;20208;-35
2021/03/20 10:03:40;;;;;;;1999.90;999.90;;;;;;;;;;5078733;28;20232;-34
2021/03/20 10:06:29;;;;;;;1999.90;999.90;;;;;;;;;;5078785;28;20210;-37
2021/03/20 10:09:23;;;;;;;1999.90;999.90;;;;;;;;;;5078158;28;20259;-33
2021/03/20 10:12:19;;;;;;;1999.90;999.90;;;;;;;;;;5078525;28;20199;-34
2021/03/20 10:15:23;;;;;;;1999.90;999.90;;;;;;;;;;5077868;28;20238;-34
2021/03/20 10:18:27;;;;;;;1999.90;999.90;;;;;;;;;;5078216;28;20485;-36
2021/03/20 10:21:19;;;;;;;1999.90;999.90;;;;;;;;;;5077796;28;20210;-36
2021/03/20 10:24:24;;;;;;;1999.90;999.90;;;;;;;;;;5078281;28;20514;-33
2021/03/20 10:27:19;;;;;;;1999.90;999.90;;;;;;;;;;5078351;28;20206;-35
2021/03/20 10:30:11;;;;;;;1999.90;999.90;;;;;;;;;;5078587;28;20201;-33
2021/03/20 10:32:58;;;;;;;1999.90;999.90;;;;;;;;;;5077613;28;20204;-34
2021/03/20 10:35:49;;;;;;;1999.90;999.90;;;;;;;;;;5078404;28;20295;-34
2021/03/20 10:38:35;;;;;;;1999.90;999.90;;;;;;;;;;5076498;28;20353;-35
2021/03/20 10:41:23;;;;;;;1999.90;999.90;;;;;;;;;;5078301;28;20200;-32
2021/03/20 10:44:14;;;;;;;1999.90;999.90;;;;;;;;;;5077554;28;20227;-38
2021/03/20 10:47:20;;;;;;;1999.90;999.90;;;;;;;;;;5078015;28;20574;-34
2021/03/20 10:50:11;;;;;;;1999.90;999.90;;;;;;;;;;5077490;28;20212;-36
2021/03/20 10:52:59;;;;;;;1999.90;999.90;;;;;;;;;;5077139;28;20264;-34
2021/03/20 10:55:47;;;;;;;1999.90;999.90;;;;;;;;;;5077963;28;20271;-34
2021/03/20 10:58:37;;;;;;;1999.90;999.90;;;;;;;;;;5077756;28;20285;-37
2021/03/20 11:01:31;;;;;;;1999.90;999.90;;;;;;;;;;5077881;28;20206;-35
2021/03/20 11:04:39;;;;;;;1999.90;999.90;;;;;;;;;;5077757;28;20625;-36
2021/03/20 11:07:26;;;;;;;1999.90;999.90;;;;;;;;;;5077398;28;20207;-34
2021/03/20 11:10:14;;;;;;;1999.90;999.90;;;;;;;;;;5078205;28;20199;-33
2021/03/20 11:13:04;;;;;;;1999.90;999.90;;;;;;;;;;5077822;28;20272;-33
2021/03/20 11:16:03;;;;;;;1999.90;999.90;;;;;;;;;;5077657;28;20196;-36
2021/03/20 11:18:51;;;;;;;1999.90;999.90;;;;;;;;;;5077592;28;20200;-35
2021/03/20 11:21:38;;;;;;;1999.90;999.90;;;;;;;;;;5077392;28;20207;-35
2021/03/20 11:24:25;;;;;;;1999.90;999.90;;;;;;;;;;5077571;28;20229;-38
2021/03/20 11:27:19;;;;;;;1999.90;999.90;;;;;;;;;;5077605;28;20480;-35
2021/03/20 11:30:06;;;;;;;1999.90;999.90;;;;;;;;;;5077302;28;20224;-33
2021/03/20 11:32:52;;;;;;;1999.90;999.90;;;;;;;;;;5077451;28;20203;-36
2021/03/20 11:35:41;;;;;;;1999.90;999.90;;;;;;;;;;5076747;28;20483;-37
2021/03/20 11:38:29;;;;;;;1999.90;999.90;;;;;;;;;;5077042;28;20204;-38
2021/03/20 11:41:17;;;;;;;1999.90;999.90;;;;;;;;;;5077439;28;20425;-38
2021/03/20 11:44:06;;;;;;;1999.90;999.90;;;;;;;;;;5080228;28;20609;-38
2021/03/20 11:46:56;;;;;;;1999.90;999.90;;;;;;;;;;5079884;28;20306;-33
2021/03/20 11:49:47;;;;;;;1999.90;999.90;;;;;;;;;;5076400;28;20300;-34
2021/03/20 11:52:45;;;;;;;1999.90;999.90;;;;;;;;;;5076294;28;20199;-37
2021/03/20 11:55:36;;;;;;;1999.90;999.90;;;;;;;;;;5076829;28;20212;-36
2021/03/20 11:58:26;;;;;;;1999.90;999.90;;;;;;;;;;5076598;28;20208;-36
2021/03/20 12:01:45;;;;;;;1999.90;999.90;;;;;;;;;;5077077;28;20219;-32
2021/03/20 12:04:35;;;;;;;1999.90;999.90;;;;;;;;;;5076770;28;20281;-36
2021/03/20 12:07:25;;;;;;;1999.90;999.90;;;;;;;;;;5076535;28;20208;-38
2021/03/20 12:10:17;;;;;;;1999.90;999.90;;;;;;;;;;5076897;28;20204;-34
2021/03/20 12:13:03;;;;;;;1999.90;999.90;;;;;;;;;;5076700;28;20482;-35
2021/03/20 12:15:53;;;;;;;1999.90;999.90;;;;;;;;;;5076225;28;20519;-42
2021/03/20 12:18:40;;;;;;;1999.90;999.90;;;;;;;;;;5076321;28;20196;-37
2021/03/20 12:21:27;;;;;;;1999.90;999.90;;;;;;;;;;5076434;28;20598;-38
2021/03/20 12:24:19;;;;;;;1999.90;999.90;;;;;;;;;;5076231;28;20318;-38
2021/03/20 12:27:27;;;;;;;1999.90;999.90;;;;;;;;;;5076405;28;20195;-33
2021/03/20 12:30:22;;;;;;;1999.90;999.90;;;;;;;;;;5076099;28;20499;-37
2021/03/20 12:33:17;;;;;;;1999.90;999.90;;;;;;;;;;5075209;28;20207;-35
2021/03/20 12:36:15;;;;;;;1999.90;999.90;;;;;;;;;;5075835;28;20297;-37
2021/03/20 12:39:05;;;;;;;1999.90;999.90;;;;;;;;;;5077135;28;20191;-36
2021/03/20 12:41:53;;;;;;;1999.90;999.90;;;;;;;;;;5076900;28;20195;-34
2021/03/20 12:44:42;;;;;;;1999.90;999.90;;;;;;;;;;5075755;28;20518;-32
2021/03/20 12:47:31;;;;;;;1999.90;999.90;;;;;;;;;;5076071;28;20262;-37
2021/03/20 12:50:17;;;;;;;1999.90;999.90;;;;;;;;;;5075823;28;20254;-36
2021/03/20 12:53:06;;;;;;;1999.90;999.90;;;;;;;;;;5076245;28;20341;-36
2021/03/20 12:55:53;;;;;;;1999.90;999.90;;;;;;;;;;5076173;28;20346;-33
2021/03/20 12:58:39;;;;;;;1999.90;999.90;;;;;;;;;;5076089;28;20621;-34
2021/03/20 13:01:26;;;;;;;1999.90;999.90;;;;;;;;;;5078490;28;20250;-34
2021/03/20 13:04:13;;;;;;;1999.90;999.90;;;;;;;;;;5079486;28;20227;-38
2021/03/20 13:07:00;;;;;;;1999.90;999.90;;;;;;;;;;5080039;28;20207;-35
2021/03/20 13:09:51;;;;;;;1999.90;999.90;;;;;;;;;;5080282;28;20215;-34
2021/03/20 13:12:39;;;;;;;1999.90;999.90;;;;;;;;;;5080647;28;20498;-36
2021/03/20 13:15:30;;;;;;;1999.90;999.90;;;;;;;;;;5079988;28;20370;-35
2021/03/20 13:18:19;;;;;;;1999.90;999.90;;;;;;;;;;5079542;28;20208;-34
2021/03/20 13:21:07;;;;;;;1999.90;999.90;;;;;;;;;;5079192;28;20290;-35
2021/03/20 13:23:53;;;;;;;1999.90;999.90;;;;;;;;;;5079496;28;20285;-35
2021/03/20 13:26:41;;;;;;;1999.90;999.90;;;;;;;;;;5078976;28;20203;-34
2021/03/20 13:29:26;;;;;;;1999.90;999.90;;;;;;;;;;5079951;28;20262;-32
2021/03/20 13:32:12;;;;;;;1999.90;999.90;;;;;;;;;;5079305;28;20604;-32
2021/03/20 13:35:00;;;;;;;1999.90;999.90;;;;;;;;;;5079348;28;20206;-35
2021/03/20 13:37:46;;;;;;;1999.90;999.90;;;;;;;;;;5079360;28;20243;-34
2021/03/20 13:40:33;;;;;;;1999.90;999.90;;;;;;;;;;5079216;28;20299;-37
2021/03/20 13:43:22;;;;;;;1999.90;999.90;;;;;;;;;;5079036;28;20598;-33
2021/03/20 13:46:08;;;;;;;1999.90;999.90;;;;;;;;;;5079260;28;20200;-33
2021/03/20 13:48:56;;;;;;;1999.90;999.90;;;;;;;;;;5079348;28;20357;-33
2021/03/20 13:51:47;;;;;;;1999.90;999.90;;;;;;;;;;5079111;28;20261;-38
2021/03/20 13:54:35;;;;;;;1999.90;999.90;;;;;;;;;;5078771;28;20212;-32
2021/03/20 13:57:24;;;;;;;1999.90;999.90;;;;;;;;;;5079103;28;20224;-32
2021/03/20 14:00:12;;;;;;;1999.90;999.90;;;;;;;;;;5078817;28;20203;-35
2021/03/20 14:02:58;;;;;;;1999.90;999.90;;;;;;;;;;5079317;28;20537;-33
2021/03/20 14:05:47;;;;;;;1999.90;999.90;;;;;;;;;;5079212;28;20207;-32
2021/03/20 14:08:34;;;;;;;1999.90;999.90;;;;;;;;;;5072105;28;20486;-32
2021/03/20 14:11:20;;;;;;;1999.90;999.90;;;;;;;;;;5068831;28;20205;-33
2021/03/20 14:14:08;;;;;;;1999.90;999.90;;;;;;;;;;5074894;28;20239;-33
2021/03/20 14:16:55;;;;;;;1999.90;999.90;;;;;;;;;;5062835;28;20248;-32
2021/03/20 14:19:44;;;;;;;1999.90;999.90;;;;;;;;;;5075651;28;20483;-33
2021/03/20 14:22:32;;;;;;;1999.90;999.90;;;;;;;;;;5079347;28;20203;-36
2021/03/20 14:25:19;;;;;;;1999.90;999.90;;;;;;;;;;5078841;28;20227;-37
2021/03/20 14:28:07;;;;;;;1999.90;999.90;;;;;;;;;;5078862;28;20207;-34
2021/03/20 14:30:57;;;;;;;1999.90;999.90;;;;;;;;;;5078681;28;20620;-33
2021/03/20 14:33:44;;;;;;;1999.90;999.90;;;;;;;;;;5078742;28;20191;-35
2021/03/20 14:36:30;;;;;;;1999.90;999.90;;;;;;;;;;5078961;28;20672;-34
2021/03/20 14:39:15;;;;;;;1999.90;999.90;;;;;;;;;;5079469;28;20196;-35
2021/03/20 14:42:04;;;;;;;1999.90;999.90;;;;;;;;;;5078933;28;20282;-33
2021/03/20 14:44:53;;;;;;;1999.90;999.90;;;;;;;;;;5078355;28;20231;-34
2021/03/20 14:47:38;;;;;;;1999.90;999.90;;;;;;;;;;5077962;28;20227;-32
2021/03/20 14:50:29;;;;;;;1999.90;999.90;;;;;;;;;;5078078;28;20254;-35
2021/03/20 14:53:17;;;;;;;1999.90;999.90;;;;;;;;;;5077895;28;20350;-34
2021/03/20 14:56:05;;;;;;;1999.90;999.90;;;;;;;;;;5078356;28;20475;-37
2021/03/20 14:58:52;;;;;;;1999.90;999.90;;;;;;;;;;5078074;28;20202;-36
2021/03/20 15:01:39;;;;;;;1999.90;999.90;;;;;;;;;;5077168;28;20200;-35
2021/03/20 15:04:25;;;;;;;1999.90;999.90;;;;;;;;;;5077764;28;20373;-33
2021/03/20 15:07:14;;;;;;;1999.90;999.90;;;;;;;;;;5077832;28;20204;-35
2021/03/20 15:09:59;;;;;;;1999.90;999.90;;;;;;;;;;5077893;28;20357;-35
2021/03/20 15:12:47;;;;;;;1999.90;999.90;;;;;;;;;;5077674;28;20501;-34
2021/03/20 15:15:34;;;;;;;1999.90;999.90;;;;;;;;;;5057248;28;20240;-35
2021/03/20 15:18:21;;;;;;;1999.90;999.90;;;;;;;;;;5057585;28;20610;-34
2021/03/20 15:21:08;;;;;;;1999.90;999.90;;;;;;;;;;5057300;28;20784;-34
2021/03/20 15:23:57;;;;;;;1999.90;999.90;;;;;;;;;;5056585;28;20239;-34
2021/03/20 15:26:42;;;;;;;1999.90;999.90;;;;;;;;;;5057978;28;20200;-35
2021/03/20 15:29:29;;;;;;;1999.90;999.90;;;;;;;;;;5057708;28;20201;-32
2021/03/20 15:32:15;;;;;;;1999.90;999.90;;;;;;;;;;5057347;28;20658;-34
2021/03/20 15:35:01;;;;;;;1999.90;999.90;;;;;;;;;;5057529;28;20282;-32
2021/03/20 15:37:46;;;;;;;1999.90;999.90;;;;;;;;;;5057225;28;20197;-35
2021/03/20 15:40:35;;;;;;;1999.90;999.90;;;;;;;;;;5057044;28;20246;-35
2021/03/20 15:43:23;;;;;;;1999.90;999.90;;;;;;;;;;5057202;28;20459;-33
2021/03/20 15:46:10;;;;;;;1999.90;999.90;;;;;;;;;;5056619;28;20623;-33
2021/03/20 15:48:56;;;;;;;1999.90;999.90;;;;;;;;;;5056998;28;20286;-33
2021/03/20 15:51:42;;;;;;;1999.90;999.90;;;;;;;;;;5056993;28;20695;-34